createdAt,value
2023-03-03T00:02:21.137Z,43.00
2023-03-03T00:04:49.565Z,42.82
2023-03-03T00:07:23.565Z,42.55
2023-03-03T00:09:51.975Z,42.81
2023-03-03T00:12:29.065Z,42.51
2023-03-03T00:14:57.737Z,42.93
2023-03-03T00:17:29.772Z,42.85
2023-03-03T00:19:58.327Z,42.59
2023-03-03T00:22:37.206Z,42.60
2023-03-03T00:25:31.675Z,42.68
2023-03-03T00:28:25.322Z,42.76
2023-03-03T00:30:57.031Z,42.65
2023-03-03T00:33:40.075Z,42.70
2023-03-03T00:36:29.177Z,42.82
2023-03-03T00:39:38.122Z,42.52
2023-03-03T00:42:16.775Z,42.69
2023-03-03T00:44:56.300Z,42.16
2023-03-03T00:47:33.286Z,42.53
2023-03-03T00:50:07.881Z,42.29
2023-03-03T00:52:41.786Z,42.45
2023-03-03T00:55:11.697Z,41.99
2023-03-03T00:57:40.367Z,42.27
2023-03-03T01:00:13.376Z,42.10
2023-03-03T01:02:42.205Z,42.38
2023-03-03T01:05:13.797Z,42.44
2023-03-03T01:07:42.379Z,42.27
2023-03-03T01:10:11.892Z,42.46
2023-03-03T01:12:40.549Z,42.23
2023-03-03T01:15:10.718Z,42.22
2023-03-03T01:17:40.277Z,42.11
2023-03-03T01:20:11.342Z,41.91
2023-03-03T01:22:39.817Z,42.18
2023-03-03T01:25:09.431Z,42.00
2023-03-03T01:27:39.657Z,42.21
2023-03-03T01:30:09.240Z,41.80
2023-03-03T01:32:38.585Z,42.15
2023-03-03T01:35:08.205Z,42.05
2023-03-03T01:37:36.940Z,42.02
2023-03-03T01:40:18.216Z,41.87
2023-03-03T01:42:46.750Z,41.77
2023-03-03T01:45:23.386Z,42.07
2023-03-03T01:48:06.645Z,41.95
2023-03-03T01:50:48.204Z,41.94
2023-03-03T01:53:24.355Z,41.83
2023-03-03T01:55:53.227Z,41.89
2023-03-03T01:58:29.341Z,41.77
2023-03-03T02:01:02.712Z,41.80
2023-03-03T02:03:31.234Z,41.97
2023-03-03T02:06:23.513Z,41.88
2023-03-03T02:09:05.430Z,41.63
2023-03-03T02:11:36.600Z,41.59
2023-03-03T02:14:05.154Z,41.68
2023-03-03T02:16:34.125Z,41.58
2023-03-03T02:19:02.794Z,41.67
2023-03-03T02:21:31.665Z,41.63
2023-03-03T02:24:26.828Z,41.61
2023-03-03T02:26:55.711Z,41.53
2023-03-03T02:29:24.297Z,41.69
2023-03-03T02:31:54.692Z,41.75
2023-03-03T02:34:24.707Z,41.54
2023-03-03T02:36:54.102Z,41.52
2023-03-03T02:39:26.893Z,41.53
2023-03-03T02:42:18.309Z,41.80
2023-03-03T02:44:52.159Z,41.54
2023-03-03T02:47:20.882Z,41.60
2023-03-03T02:49:49.367Z,41.57
2023-03-03T02:52:19.688Z,41.69
2023-03-03T02:54:49.183Z,41.73
2023-03-03T02:57:18.236Z,41.52
2023-03-03T02:59:46.731Z,41.69
2023-03-03T03:02:19.933Z,41.48
2023-03-03T03:04:48.909Z,41.54
2023-03-03T03:07:22.530Z,41.63
2023-03-03T03:09:51.336Z,41.64
2023-03-03T03:12:21.519Z,41.69
2023-03-03T03:14:53.758Z,41.73
2023-03-03T03:17:22.595Z,41.62
2023-03-03T03:19:53.090Z,41.57
2023-03-03T03:22:22.363Z,41.51
2023-03-03T03:24:51.152Z,41.64
2023-03-03T03:27:20.260Z,41.92
2023-03-03T03:29:50.120Z,41.85
2023-03-03T03:32:20.009Z,41.76
2023-03-03T03:34:49.519Z,41.85
2023-03-03T03:37:18.421Z,41.65
2023-03-03T03:39:48.289Z,41.56
2023-03-03T03:42:17.441Z,41.34
2023-03-03T03:44:47.159Z,41.24
2023-03-03T03:47:17.222Z,41.11
2023-03-03T03:49:46.458Z,40.92
2023-03-03T03:52:15.640Z,40.72
2023-03-03T03:54:44.349Z,40.72
2023-03-03T03:57:13.565Z,40.61
2023-03-03T03:59:42.342Z,40.47
2023-03-03T04:02:11.624Z,40.49
2023-03-03T04:04:40.281Z,40.48
2023-03-03T04:07:11.435Z,40.60
2023-03-03T04:09:40.333Z,40.32
2023-03-03T04:12:09.991Z,40.48
2023-03-03T04:14:38.641Z,40.62
2023-03-03T04:17:07.473Z,40.63
2023-03-03T04:19:36.421Z,40.67
2023-03-03T04:22:07.282Z,40.74
2023-03-03T04:24:36.163Z,40.70
2023-03-03T04:27:06.533Z,40.81
2023-03-03T04:29:35.484Z,40.87
2023-03-03T04:32:04.536Z,40.59
2023-03-03T04:34:35.212Z,40.95
2023-03-03T04:37:04.196Z,40.75
2023-03-03T04:39:33.443Z,41.01
2023-03-03T04:42:02.443Z,40.96
2023-03-03T04:44:30.987Z,41.25
2023-03-03T04:47:00.784Z,41.20
2023-03-03T04:49:29.525Z,41.13
2023-03-03T04:51:59.487Z,41.30
2023-03-03T04:54:28.138Z,41.24
2023-03-03T04:56:57.357Z,41.28
2023-03-03T04:59:26.557Z,41.26
2023-03-03T05:01:55.568Z,41.35
2023-03-03T05:04:24.196Z,41.26
2023-03-03T05:06:53.034Z,41.29
2023-03-03T05:09:21.529Z,40.79
2023-03-03T05:11:50.547Z,41.17
2023-03-03T05:14:19.151Z,40.92
2023-03-03T05:16:48.412Z,40.80
2023-03-03T05:19:16.944Z,40.49
2023-03-03T05:21:46.225Z,40.33
2023-03-03T05:24:14.955Z,40.02
2023-03-03T05:26:43.866Z,39.84
2023-03-03T05:29:12.329Z,39.81
2023-03-03T05:31:41.797Z,39.56
2023-03-03T05:34:11.308Z,39.34
2023-03-03T05:36:40.133Z,39.23
2023-03-03T05:39:08.677Z,38.96
2023-03-03T05:41:37.484Z,38.68
2023-03-03T05:44:06.044Z,38.69
2023-03-03T05:46:34.937Z,38.51
2023-03-03T05:49:03.438Z,38.21
2023-03-03T05:51:32.265Z,38.08
2023-03-03T05:54:00.775Z,38.04
2023-03-03T05:56:29.977Z,37.98
2023-03-03T05:58:58.416Z,37.90
2023-03-03T06:01:28.751Z,37.62
2023-03-03T06:03:57.216Z,37.49
2023-03-03T06:06:26.096Z,37.31
2023-03-03T06:08:57.131Z,37.31
2023-03-03T06:11:26.415Z,37.30
2023-03-03T06:13:55.105Z,36.97
2023-03-03T06:16:24.032Z,37.05
2023-03-03T06:18:52.598Z,36.93
2023-03-03T06:21:21.421Z,37.06
2023-03-03T06:23:49.950Z,36.91
2023-03-03T06:26:18.798Z,36.74
2023-03-03T06:28:47.352Z,36.47
2023-03-03T06:31:16.333Z,36.24
2023-03-03T06:33:44.865Z,36.43
2023-03-03T06:36:13.872Z,36.52
2023-03-03T06:38:42.477Z,36.53
2023-03-03T06:41:11.644Z,36.67
2023-03-03T06:43:40.236Z,36.85
2023-03-03T06:46:09.200Z,36.93
2023-03-03T06:48:37.728Z,37.02
2023-03-03T06:51:22.310Z,37.09
2023-03-03T06:53:57.709Z,37.34
2023-03-03T06:56:27.010Z,37.37
2023-03-03T06:59:00.885Z,37.45
2023-03-03T07:01:35.690Z,37.60
2023-03-03T07:04:34.105Z,37.66
2023-03-03T07:07:20.891Z,38.04
2023-03-03T07:09:52.738Z,37.91
2023-03-03T07:12:27.746Z,38.15
2023-03-03T07:15:38.292Z,38.01
2023-03-03T07:18:32.843Z,38.35
2023-03-03T07:21:08.935Z,38.46
2023-03-03T07:23:45.575Z,38.59
2023-03-03T07:26:20.349Z,38.58
2023-03-03T07:29:17.445Z,38.72
2023-03-03T07:31:49.383Z,38.74
2023-03-03T07:34:36.271Z,38.86
2023-03-03T07:37:38.819Z,38.91
2023-03-03T07:40:35.608Z,38.84
2023-03-03T07:43:38.609Z,39.17
2023-03-03T07:46:10.382Z,39.18
2023-03-03T07:48:41.250Z,39.09
2023-03-03T07:51:23.168Z,39.31
2023-03-03T07:53:52.730Z,39.35
2023-03-03T07:56:34.976Z,39.86
2023-03-03T07:59:23.598Z,39.60
2023-03-03T08:01:58.693Z,39.31
2023-03-03T08:04:51.022Z,39.55
2023-03-03T08:07:22.390Z,39.59
2023-03-03T08:09:57.806Z,39.59
2023-03-03T08:12:34.368Z,39.69
2023-03-03T08:15:23.373Z,39.62
2023-03-03T08:17:53.999Z,39.89
2023-03-03T08:20:47.120Z,39.60
2023-03-03T08:23:17.304Z,39.79
2023-03-03T08:25:46.208Z,40.11
2023-03-03T08:28:15.584Z,40.02
2023-03-03T08:30:44.360Z,39.95
2023-03-03T08:33:13.890Z,40.00
2023-03-03T08:35:44.374Z,40.08
2023-03-03T08:38:15.198Z,40.08
2023-03-03T08:40:44.121Z,40.14
2023-03-03T08:43:17.770Z,40.17
2023-03-03T08:45:46.528Z,40.27
2023-03-03T08:48:16.101Z,40.26
2023-03-03T08:50:44.989Z,40.36
2023-03-03T08:53:14.062Z,40.32
2023-03-03T08:55:43.002Z,40.32
2023-03-03T08:58:11.930Z,40.58
2023-03-03T09:00:41.140Z,40.38
2023-03-03T09:03:09.981Z,40.47
2023-03-03T09:05:39.163Z,40.42
2023-03-03T09:08:08.214Z,40.44
2023-03-03T09:10:36.681Z,40.43
2023-03-03T09:13:15.783Z,40.42
2023-03-03T09:15:44.230Z,40.34
2023-03-03T09:18:24.759Z,40.57
2023-03-03T09:20:53.779Z,40.51
2023-03-03T09:23:58.307Z,40.58
2023-03-03T09:26:32.362Z,40.69
2023-03-03T09:29:17.968Z,40.57
2023-03-03T09:31:53.743Z,40.73
2023-03-03T09:34:40.938Z,40.78
2023-03-03T09:37:29.318Z,40.70
2023-03-03T09:39:58.301Z,40.81
2023-03-03T09:42:52.721Z,40.77
2023-03-03T09:45:40.075Z,40.84
2023-03-03T09:48:37.135Z,40.80
2023-03-03T09:51:55.597Z,40.86
2023-03-03T09:55:11.487Z,40.95
2023-03-03T09:58:20.178Z,40.52
2023-03-03T10:01:18.181Z,41.01
2023-03-03T10:04:25.749Z,40.78
2023-03-03T10:07:08.712Z,40.98
2023-03-03T10:10:13.555Z,41.11
2023-03-03T10:12:48.623Z,41.12
2023-03-03T10:15:37.457Z,40.96
2023-03-03T10:18:39.119Z,40.94
2023-03-03T10:21:19.987Z,41.07
2023-03-03T10:24:17.596Z,40.99
2023-03-03T10:27:19.456Z,41.05
2023-03-03T10:29:56.917Z,41.11
2023-03-03T10:32:41.330Z,41.09
2023-03-03T10:35:41.243Z,41.13
2023-03-03T10:38:14.985Z,41.15
2023-03-03T10:41:25.923Z,41.14
2023-03-03T10:44:17.011Z,41.14
2023-03-03T10:47:05.671Z,41.19
2023-03-03T10:50:00.783Z,41.28
2023-03-03T10:52:58.957Z,41.09
2023-03-03T10:55:39.524Z,41.32
2023-03-03T10:58:37.386Z,41.18
2023-03-03T11:01:24.126Z,41.31
2023-03-03T11:04:16.910Z,41.33
2023-03-03T11:07:13.802Z,41.16
2023-03-03T11:10:19.226Z,41.38
2023-03-03T11:13:09.392Z,41.51
2023-03-03T11:15:52.820Z,41.53
2023-03-03T11:19:09.865Z,41.46
2023-03-03T11:22:00.068Z,41.35
2023-03-03T11:24:53.499Z,41.51
2023-03-03T11:28:04.639Z,41.44
2023-03-03T11:30:58.042Z,41.32
2023-03-03T11:33:59.409Z,41.60
2023-03-03T11:36:58.341Z,41.28
2023-03-03T11:39:27.911Z,41.58
2023-03-03T11:42:36.581Z,41.58
2023-03-03T11:45:49.860Z,41.56
2023-03-03T11:48:46.851Z,41.48
2023-03-03T11:51:25.040Z,41.41
2023-03-03T11:54:02.393Z,41.57
2023-03-03T11:56:43.539Z,41.49
2023-03-03T11:59:33.020Z,41.64
2023-03-03T12:02:22.545Z,41.49
2023-03-03T12:04:59.348Z,41.52
2023-03-03T12:07:59.467Z,41.58
2023-03-03T12:10:49.652Z,41.82
2023-03-03T12:13:49.019Z,41.59
2023-03-03T12:16:47.122Z,41.73
2023-03-03T12:19:23.189Z,41.78
2023-03-03T12:22:19.454Z,42.41
2023-03-03T12:24:56.738Z,42.00
2023-03-03T12:28:00.778Z,42.21
2023-03-03T12:30:52.376Z,41.89
2023-03-03T12:33:53.289Z,42.12
2023-03-03T12:36:38.520Z,42.09
2023-03-03T12:39:35.788Z,42.24
2023-03-03T12:42:35.311Z,42.06
2023-03-03T12:45:43.320Z,42.27
2023-03-03T12:48:18.515Z,42.51
2023-03-03T12:51:01.003Z,42.46
2023-03-03T12:53:54.395Z,42.48
2023-03-03T12:56:53.904Z,42.50
2023-03-03T12:59:47.943Z,42.60
2023-03-03T13:02:47.721Z,42.67
2023-03-03T13:05:52.130Z,42.57
2023-03-03T13:08:48.632Z,42.47
2023-03-03T13:11:43.852Z,42.80
2023-03-03T13:14:26.312Z,42.68
2023-03-03T13:17:15.822Z,42.52
2023-03-03T13:20:00.505Z,42.53
2023-03-03T13:22:47.137Z,42.46
2023-03-03T13:25:27.558Z,42.28
2023-03-03T13:28:01.678Z,42.13
2023-03-03T13:30:38.396Z,42.37
2023-03-03T13:33:26.326Z,42.23
2023-03-03T13:36:00.457Z,42.28
2023-03-03T13:38:31.866Z,42.31
2023-03-03T13:41:18.307Z,42.28
2023-03-03T13:43:55.256Z,42.29
2023-03-03T13:46:53.176Z,42.40
2023-03-03T13:49:47.629Z,42.45
2023-03-03T13:52:34.081Z,42.38
2023-03-03T13:55:32.837Z,42.54
2023-03-03T13:58:15.031Z,42.49
2023-03-03T14:00:59.834Z,42.63
2023-03-03T14:04:03.012Z,42.57
2023-03-03T14:06:31.565Z,42.50
2023-03-03T14:09:44.261Z,42.54
2023-03-03T14:12:22.913Z,42.55
2023-03-03T14:15:06.312Z,42.86
2023-03-03T14:17:55.899Z,43.37
2023-03-03T14:20:52.948Z,43.10
2023-03-03T14:24:03.233Z,43.05
2023-03-03T14:26:31.962Z,42.86
2023-03-03T14:29:23.015Z,42.86
2023-03-03T14:31:52.118Z,42.94
2023-03-03T14:34:40.251Z,42.74
2023-03-03T14:37:29.553Z,42.76
2023-03-03T14:40:21.256Z,42.99
2023-03-03T14:42:52.821Z,43.07
2023-03-03T14:45:38.955Z,43.03
2023-03-03T14:48:18.270Z,43.15
2023-03-03T14:50:50.601Z,43.02
2023-03-03T14:53:19.193Z,43.07
2023-03-03T14:55:51.640Z,43.05
2023-03-03T14:58:38.095Z,43.07
2023-03-03T15:01:33.609Z,42.99
2023-03-03T15:04:27.991Z,43.11
2023-03-03T15:06:56.601Z,43.10
2023-03-03T15:09:37.161Z,43.07
2023-03-03T15:12:38.006Z,42.96
2023-03-03T15:15:19.976Z,43.19
2023-03-03T15:17:51.184Z,43.12
2023-03-03T15:20:47.402Z,43.03
2023-03-03T15:23:48.799Z,42.88
2023-03-03T15:26:47.749Z,43.15
2023-03-03T15:29:24.979Z,43.09
2023-03-03T15:32:18.798Z,43.20
2023-03-03T15:35:10.809Z,43.24
2023-03-03T15:38:00.340Z,43.36
2023-03-03T15:40:48.745Z,43.34
2023-03-03T15:44:06.637Z,43.14
2023-03-03T15:46:56.699Z,43.19
2023-03-03T15:50:03.426Z,43.16
2023-03-03T15:52:38.956Z,43.29
2023-03-03T15:55:59.861Z,43.11
2023-03-03T15:58:37.105Z,43.15
2023-03-03T16:02:05.569Z,43.07
2023-03-03T16:04:36.537Z,43.38
2023-03-03T16:07:36.062Z,43.17
2023-03-03T16:10:21.640Z,42.87
2023-03-03T16:13:16.885Z,42.69
2023-03-03T16:16:09.173Z,42.56
2023-03-03T16:19:00.907Z,42.53
2023-03-03T16:21:47.794Z,42.16
2023-03-03T16:24:53.156Z,41.92
2023-03-03T16:27:45.784Z,41.71
2023-03-03T16:30:52.280Z,41.57
2023-03-03T16:33:44.395Z,41.13
2023-03-03T16:36:47.838Z,41.07
2023-03-03T16:39:44.449Z,40.89
2023-03-03T16:42:30.377Z,40.64
2023-03-03T16:45:21.695Z,40.23
2023-03-03T16:48:35.517Z,40.35
2023-03-03T16:51:15.153Z,39.95
2023-03-03T16:54:03.430Z,39.94
2023-03-03T16:56:48.148Z,39.80
2023-03-03T16:59:36.968Z,39.68
2023-03-03T17:02:25.649Z,39.61
2023-03-03T17:05:18.408Z,39.63
2023-03-03T17:08:19.465Z,39.80
2023-03-03T17:11:12.673Z,39.58
2023-03-03T17:14:04.146Z,39.66
2023-03-03T17:17:02.557Z,39.94
2023-03-03T17:20:06.116Z,39.89
2023-03-03T17:22:46.623Z,40.13
2023-03-03T17:25:46.257Z,40.07
2023-03-03T17:28:36.899Z,40.33
2023-03-03T17:31:46.988Z,40.16
2023-03-03T17:34:39.864Z,40.30
2023-03-03T17:37:52.274Z,40.48
2023-03-03T17:40:48.470Z,40.62
2023-03-03T17:43:37.898Z,40.78
2023-03-03T17:46:22.264Z,40.58
2023-03-03T17:49:35.800Z,40.72
2023-03-03T17:52:10.600Z,40.97
2023-03-03T17:55:27.007Z,40.78
2023-03-03T17:58:56.424Z,40.49
2023-03-03T18:01:35.543Z,40.45
2023-03-03T18:04:13.436Z,40.34
2023-03-03T18:07:21.798Z,40.17
2023-03-03T18:10:38.383Z,40.16
2023-03-03T18:13:30.841Z,40.21
2023-03-03T18:16:26.337Z,40.23
2023-03-03T18:19:27.260Z,40.40
2023-03-03T18:22:14.523Z,40.47
2023-03-03T18:24:52.059Z,40.44
2023-03-03T18:27:48.693Z,40.67
2023-03-03T18:30:25.728Z,40.78
2023-03-03T18:32:57.548Z,40.72
2023-03-03T18:35:41.156Z,41.01
2023-03-03T18:38:16.177Z,41.24
2023-03-03T18:40:54.552Z,41.06
2023-03-03T18:43:44.959Z,41.07
2023-03-03T18:46:36.532Z,41.35
2023-03-03T18:49:09.757Z,41.38
2023-03-03T18:51:41.140Z,41.56
2023-03-03T18:54:12.687Z,41.49
2023-03-03T18:56:47.698Z,41.51
2023-03-03T18:59:31.746Z,41.88
2023-03-03T19:02:21.498Z,41.81
2023-03-03T19:05:15.897Z,42.40
2023-03-03T19:07:52.673Z,42.53
2023-03-03T19:10:21.664Z,43.31
2023-03-03T19:12:52.117Z,42.82
2023-03-03T19:15:30.228Z,43.56
2023-03-03T19:18:28.458Z,43.89
2023-03-03T19:21:12.440Z,44.16
2023-03-03T19:24:05.833Z,43.93
2023-03-03T19:27:24.207Z,44.19
2023-03-03T19:30:23.099Z,44.03
2023-03-03T19:33:31.250Z,44.39
2023-03-03T19:36:19.276Z,44.45
2023-03-03T19:39:13.652Z,44.59
2023-03-03T19:42:24.439Z,44.83
2023-03-03T19:45:15.706Z,45.04
2023-03-03T19:48:09.746Z,45.18
2023-03-03T19:51:02.534Z,45.50
2023-03-03T19:54:16.057Z,45.64
2023-03-03T19:56:58.493Z,45.73
2023-03-03T20:00:05.975Z,45.87
2023-03-03T20:03:10.016Z,45.53
2023-03-03T20:06:07.626Z,45.82
2023-03-03T20:08:49.241Z,45.83
2023-03-03T20:11:51.906Z,45.60
2023-03-03T20:14:46.298Z,45.67
2023-03-03T20:17:36.281Z,45.64
2023-03-03T20:20:25.656Z,45.65
2023-03-03T20:23:11.993Z,45.57
2023-03-03T20:25:47.263Z,45.27
2023-03-03T20:28:44.997Z,45.15
2023-03-03T20:31:24.304Z,44.80
2023-03-03T20:34:14.838Z,44.26
2023-03-03T20:37:10.812Z,44.27
2023-03-03T20:39:51.934Z,44.12
2023-03-03T20:42:54.595Z,44.11
2023-03-03T20:45:38.006Z,44.08
2023-03-03T20:48:19.582Z,43.71
2023-03-03T20:51:03.246Z,43.65
2023-03-03T20:53:53.447Z,43.67
2023-03-03T20:56:33.154Z,43.66
2023-03-03T20:59:19.108Z,43.58
2023-03-03T21:02:31.285Z,43.77
2023-03-03T21:05:22.505Z,43.50
2023-03-03T21:08:02.333Z,43.64
2023-03-03T21:10:35.794Z,43.67
2023-03-03T21:13:29.496Z,43.48
2023-03-03T21:16:09.813Z,43.38
2023-03-03T21:18:38.206Z,43.52
2023-03-03T21:21:06.799Z,43.40
2023-03-03T21:23:35.160Z,43.50
2023-03-03T21:26:03.851Z,43.49
2023-03-03T21:28:33.782Z,43.56
2023-03-03T21:31:20.514Z,43.43
2023-03-03T21:33:52.279Z,43.39
2023-03-03T21:36:32.647Z,43.48
2023-03-03T21:39:02.385Z,43.34
2023-03-03T21:42:09.525Z,43.27
2023-03-03T21:44:44.941Z,43.33
2023-03-03T21:47:17.670Z,43.26
2023-03-03T21:49:47.293Z,43.16
2023-03-03T21:52:17.028Z,43.31
2023-03-03T21:54:48.234Z,43.29
2023-03-03T21:57:16.625Z,43.34
2023-03-03T21:59:45.268Z,43.33
2023-03-03T22:02:13.555Z,43.34
2023-03-03T22:04:42.389Z,43.43
2023-03-03T22:07:10.906Z,43.33
2023-03-03T22:09:40.038Z,43.44
2023-03-03T22:12:08.413Z,43.52
2023-03-03T22:14:36.997Z,43.40
2023-03-03T22:17:05.348Z,43.25
2023-03-03T22:19:34.406Z,43.34
2023-03-03T22:22:02.650Z,43.29
2023-03-03T22:24:32.001Z,43.36
2023-03-03T22:27:00.320Z,43.50
2023-03-03T22:29:28.854Z,43.37
2023-03-03T22:31:57.172Z,43.47
2023-03-03T22:34:26.070Z,43.67
2023-03-03T22:36:54.314Z,43.44
2023-03-03T22:39:22.937Z,43.39
2023-03-03T22:41:51.308Z,43.45
2023-03-03T22:44:19.925Z,43.47
2023-03-03T22:46:48.226Z,43.49
2023-03-03T22:49:16.785Z,43.55
2023-03-03T22:51:45.162Z,43.37
2023-03-03T22:54:13.902Z,43.42
2023-03-03T22:56:42.259Z,43.45
2023-03-03T22:59:10.887Z,43.42
2023-03-03T23:01:39.161Z,43.55
2023-03-03T23:04:07.720Z,43.82
2023-03-03T23:06:36.014Z,43.52
2023-03-03T23:09:04.670Z,43.57
2023-03-03T23:11:33.011Z,43.36
2023-03-03T23:14:01.622Z,43.61
2023-03-03T23:16:30.109Z,43.37
2023-03-03T23:18:58.786Z,43.42
2023-03-03T23:21:27.148Z,43.55
2023-03-03T23:23:55.766Z,43.27
2023-03-03T23:26:24.179Z,43.52
2023-03-03T23:28:52.721Z,43.47
2023-03-03T23:31:21.056Z,43.29
2023-03-03T23:33:49.836Z,43.50
2023-03-03T23:36:18.175Z,43.45
2023-03-03T23:38:46.759Z,43.42
2023-03-03T23:41:15.077Z,43.65
2023-03-03T23:43:43.669Z,43.24
2023-03-03T23:46:12.071Z,43.32
2023-03-03T23:48:40.689Z,43.41
2023-03-03T23:51:09.029Z,43.24
2023-03-03T23:53:37.538Z,43.41
2023-03-03T23:56:06.323Z,43.33
2023-03-03T23:58:34.930Z,43.47
